sensor_id;sensor_type;location;lat;lon;timestamp;temperature;humidity
21214;DHT22;10764;50.850;2.904;2023-03-01T16:33:58;16.10;39.40
21214;DHT22;10764;50.850;2.904;2023-03-01T16:36:26;16.20;39.50
21214;DHT22;10764;50.850;2.904;2023-03-01T16:38:55;16.20;39.60
21214;DHT22;10764;50.850;2.904;2023-03-01T16:41:24;16.30;39.70
21214;DHT22;10764;50.850;2.904;2023-03-01T16:43:51;16.30;39.50
21214;DHT22;10764;50.850;2.904;2023-03-01T16:46:19;16.30;39.40
21214;DHT22;10764;50.850;2.904;2023-03-01T16:48:46;16.40;39.30
21214;DHT22;10764;50.850;2.904;2023-03-01T16:51:13;16.40;39.10
21214;DHT22;10764;50.850;2.904;2023-03-01T16:53:40;16.50;39.10
21214;DHT22;10764;50.850;2.904;2023-03-01T16:56:08;16.50;39.90
21214;DHT22;10764;50.850;2.904;2023-03-01T16:58:36;16.50;39.70
21214;DHT22;10764;50.850;2.904;2023-03-01T17:01:06;16.50;38.90
21214;DHT22;10764;50.850;2.904;2023-03-01T17:03:33;16.50;38.90
21214;DHT22;10764;50.850;2.904;2023-03-01T17:06:01;16.70;39.60
21214;DHT22;10764;50.850;2.904;2023-03-01T17:08:28;16.50;38.70
21214;DHT22;10764;50.850;2.904;2023-03-01T17:10:55;16.50;38.70
21214;DHT22;10764;50.850;2.904;2023-03-01T17:13:22;16.50;38.60
21214;DHT22;10764;50.850;2.904;2023-03-01T17:15:49;16.40;38.50
21214;DHT22;10764;50.850;2.904;2023-03-01T17:18:16;16.40;38.50
21214;DHT22;10764;50.850;2.904;2023-03-01T17:20:43;16.40;38.50
21214;DHT22;10764;50.850;2.904;2023-03-01T17:23:10;16.40;38.50
21214;DHT22;10764;50.850;2.904;2023-03-01T17:25:40;16.40;38.50
21214;DHT22;10764;50.850;2.904;2023-03-01T17:28:08;16.40;38.50
21214;DHT22;10764;50.850;2.904;2023-03-01T17:30:35;16.30;38.50
21214;DHT22;10764;50.850;2.904;2023-03-01T17:33:02;16.30;38.60
21214;DHT22;10764;50.850;2.904;2023-03-01T17:35:29;16.30;39.10
21214;DHT22;10764;50.850;2.904;2023-03-01T17:37:56;16.30;38.50
21214;DHT22;10764;50.850;2.904;2023-03-01T17:40:22;16.30;38.50
21214;DHT22;10764;50.850;2.904;2023-03-01T17:42:49;16.30;38.60
21214;DHT22;10764;50.850;2.904;2023-03-01T17:45:16;16.30;38.60
21214;DHT22;10764;50.850;2.904;2023-03-01T17:47:42;16.20;38.50
21214;DHT22;10764;50.850;2.904;2023-03-01T17:50:09;16.30;38.60
21214;DHT22;10764;50.850;2.904;2023-03-01T17:52:37;16.20;38.60
21214;DHT22;10764;50.850;2.904;2023-03-01T17:55:04;16.20;38.60
21214;DHT22;10764;50.850;2.904;2023-03-01T17:57:31;16.20;39.30
21214;DHT22;10764;50.850;2.904;2023-03-01T17:59:57;16.20;39.30
21214;DHT22;10764;50.850;2.904;2023-03-01T18:02:24;16.20;39.30
21214;DHT22;10764;50.850;2.904;2023-03-01T18:04:52;18.40;40.40
21214;DHT22;10764;50.850;2.904;2023-03-01T18:07:19;16.90;39.60
21214;DHT22;10764;50.850;2.904;2023-03-01T18:09:45;16.20;39.30
21214;DHT22;10764;50.850;2.904;2023-03-01T18:12:12;16.20;39.30
21214;DHT22;10764;50.850;2.904;2023-03-01T18:14:39;16.20;39.20
21214;DHT22;10764;50.850;2.904;2023-03-01T18:17:05;16.20;39.10
21214;DHT22;10764;50.850;2.904;2023-03-01T18:19:38;16.20;39.20
21214;DHT22;10764;50.850;2.904;2023-03-01T18:22:07;17.60;39.80
21214;DHT22;10764;50.850;2.904;2023-03-01T18:24:34;16.20;39.10
21214;DHT22;10764;50.850;2.904;2023-03-01T18:27:01;16.20;39.10
21214;DHT22;10764;50.850;2.904;2023-03-01T18:29:27;16.20;39.20
21214;DHT22;10764;50.850;2.904;2023-03-01T18:31:54;16.20;39.10
21214;DHT22;10764;50.850;2.904;2023-03-01T18:34:21;18.50;40.30
21214;DHT22;10764;50.850;2.904;2023-03-01T18:36:48;16.10;39.10
21214;DHT22;10764;50.850;2.904;2023-03-01T18:39:34;16.10;39.10
21214;DHT22;10764;50.850;2.904;2023-03-01T18:42:01;16.10;39.10
21214;DHT22;10764;50.850;2.904;2023-03-01T18:44:29;16.10;39.10
21214;DHT22;10764;50.850;2.904;2023-03-01T18:46:56;16.10;39.10
21214;DHT22;10764;50.850;2.904;2023-03-01T18:49:24;16.10;39.10
21214;DHT22;10764;50.850;2.904;2023-03-01T18:51:51;16.10;39.10
21214;DHT22;10764;50.850;2.904;2023-03-01T18:54:18;16.10;39.10
21214;DHT22;10764;50.850;2.904;2023-03-01T18:56:45;16.10;39.10
21214;DHT22;10764;50.850;2.904;2023-03-01T18:59:12;16.10;38.30
21214;DHT22;10764;50.850;2.904;2023-03-01T19:01:38;16.00;38.30
21214;DHT22;10764;50.850;2.904;2023-03-01T19:04:05;16.00;38.30
21214;DHT22;10764;50.850;2.904;2023-03-01T19:06:35;16.10;39.20
21214;DHT22;10764;50.850;2.904;2023-03-01T19:09:02;16.00;38.30
21214;DHT22;10764;50.850;2.904;2023-03-01T19:11:29;16.00;38.30
21214;DHT22;10764;50.850;2.904;2023-03-01T19:13:59;16.10;39.20
21214;DHT22;10764;50.850;2.904;2023-03-01T19:16:26;16.10;39.00
21214;DHT22;10764;50.850;2.904;2023-03-01T19:19:00;16.00;39.30
21214;DHT22;10764;50.850;2.904;2023-03-01T19:21:28;16.10;38.90
21214;DHT22;10764;50.850;2.904;2023-03-01T19:23:56;16.00;38.90
21214;DHT22;10764;50.850;2.904;2023-03-01T19:26:24;16.00;39.00
21214;DHT22;10764;50.850;2.904;2023-03-01T19:28:51;16.00;39.40
21214;DHT22;10764;50.850;2.904;2023-03-01T19:31:19;16.00;39.00
21214;DHT22;10764;50.850;2.904;2023-03-01T19:33:46;16.00;38.90
21214;DHT22;10764;50.850;2.904;2023-03-01T19:36:15;16.00;39.00
21214;DHT22;10764;50.850;2.904;2023-03-01T19:38:42;14.20;38.50
21214;DHT22;10764;50.850;2.904;2023-03-01T19:41:10;16.00;39.00
21214;DHT22;10764;50.850;2.904;2023-03-01T19:43:37;16.00;38.90
21214;DHT22;10764;50.850;2.904;2023-03-01T19:46:04;16.00;39.00
21214;DHT22;10764;50.850;2.904;2023-03-01T19:48:31;16.00;39.00
21214;DHT22;10764;50.850;2.904;2023-03-01T19:50:57;16.00;39.00
21214;DHT22;10764;50.850;2.904;2023-03-01T19:53:25;16.00;38.30
21214;DHT22;10764;50.850;2.904;2023-03-01T19:55:58;16.00;38.30
21214;DHT22;10764;50.850;2.904;2023-03-01T19:58:26;16.00;38.30
21214;DHT22;10764;50.850;2.904;2023-03-01T20:00:53;16.00;39.10
21214;DHT22;10764;50.850;2.904;2023-03-01T20:03:24;16.10;39.10
21214;DHT22;10764;50.850;2.904;2023-03-01T20:05:51;16.00;39.10
21214;DHT22;10764;50.850;2.904;2023-03-01T20:08:18;16.00;39.20
21214;DHT22;10764;50.850;2.904;2023-03-01T20:10:45;16.00;39.20
21214;DHT22;10764;50.850;2.904;2023-03-01T20:13:11;16.00;39.20
21214;DHT22;10764;50.850;2.904;2023-03-01T20:15:41;16.00;39.30
21214;DHT22;10764;50.850;2.904;2023-03-01T20:18:09;16.00;39.10
21214;DHT22;10764;50.850;2.904;2023-03-01T20:20:36;16.00;39.20
21214;DHT22;10764;50.850;2.904;2023-03-01T20:23:03;16.00;39.30
21214;DHT22;10764;50.850;2.904;2023-03-01T20:25:30;16.00;39.30
21214;DHT22;10764;50.850;2.904;2023-03-01T20:27:57;16.00;39.20
21214;DHT22;10764;50.850;2.904;2023-03-01T20:30:23;16.00;39.30
21214;DHT22;10764;50.850;2.904;2023-03-01T20:32:50;15.90;39.30
21214;DHT22;10764;50.850;2.904;2023-03-01T20:35:17;16.00;39.30
21214;DHT22;10764;50.850;2.904;2023-03-01T20:37:44;15.90;39.30
21214;DHT22;10764;50.850;2.904;2023-03-01T20:40:10;16.00;39.30
21214;DHT22;10764;50.850;2.904;2023-03-01T20:42:37;16.00;39.20
21214;DHT22;10764;50.850;2.904;2023-03-01T20:45:04;15.90;39.20
21214;DHT22;10764;50.850;2.904;2023-03-01T20:47:31;15.90;39.20
21214;DHT22;10764;50.850;2.904;2023-03-01T20:49:58;15.90;39.30
21214;DHT22;10764;50.850;2.904;2023-03-01T20:52:26;15.90;39.20
21214;DHT22;10764;50.850;2.904;2023-03-01T20:54:59;15.90;39.30
21214;DHT22;10764;50.850;2.904;2023-03-01T20:57:26;15.90;39.30
21214;DHT22;10764;50.850;2.904;2023-03-01T20:59:52;15.90;39.30
21214;DHT22;10764;50.850;2.904;2023-03-01T21:02:19;15.90;39.30
21214;DHT22;10764;50.850;2.904;2023-03-01T21:04:46;17.80;40.20
21214;DHT22;10764;50.850;2.904;2023-03-01T21:07:13;15.90;39.20
21214;DHT22;10764;50.850;2.904;2023-03-01T21:09:39;15.90;39.20
21214;DHT22;10764;50.850;2.904;2023-03-01T21:12:07;15.90;39.20
21214;DHT22;10764;50.850;2.904;2023-03-01T21:14:35;15.90;39.30
21214;DHT22;10764;50.850;2.904;2023-03-01T21:17:11;15.90;39.30
21214;DHT22;10764;50.850;2.904;2023-03-01T21:19:39;15.90;39.20
21214;DHT22;10764;50.850;2.904;2023-03-01T21:22:09;15.90;39.20
21214;DHT22;10764;50.850;2.904;2023-03-01T21:24:36;15.90;39.20
21214;DHT22;10764;50.850;2.904;2023-03-01T21:27:02;15.90;39.30
21214;DHT22;10764;50.850;2.904;2023-03-01T21:29:32;19.40;41.00
21214;DHT22;10764;50.850;2.904;2023-03-01T21:31:59;15.90;39.30
21214;DHT22;10764;50.850;2.904;2023-03-01T21:34:29;19.50;41.10
21214;DHT22;10764;50.850;2.904;2023-03-01T21:36:56;15.90;39.40
21214;DHT22;10764;50.850;2.904;2023-03-01T21:39:22;15.90;39.40
21214;DHT22;10764;50.850;2.904;2023-03-01T21:41:54;15.90;39.50
21214;DHT22;10764;50.850;2.904;2023-03-01T21:44:22;15.90;39.50
21214;DHT22;10764;50.850;2.904;2023-03-01T21:46:49;15.90;39.50
21214;DHT22;10764;50.850;2.904;2023-03-01T21:49:16;15.90;39.60
21214;DHT22;10764;50.850;2.904;2023-03-01T21:51:42;15.90;39.80
21214;DHT22;10764;50.850;2.904;2023-03-01T21:54:11;15.90;39.60
21214;DHT22;10764;50.850;2.904;2023-03-01T21:56:39;18.00;40.70
21214;DHT22;10764;50.850;2.904;2023-03-01T21:59:08;15.90;39.70
21214;DHT22;10764;50.850;2.904;2023-03-01T22:01:36;19.60;41.50
21214;DHT22;10764;50.850;2.904;2023-03-01T22:04:03;16.50;40.10
21214;DHT22;10764;50.850;2.904;2023-03-01T22:06:33;15.80;39.70
21214;DHT22;10764;50.850;2.904;2023-03-01T22:09:06;19.10;41.30
21214;DHT22;10764;50.850;2.904;2023-03-01T22:11:36;18.60;41.00
21214;DHT22;10764;50.850;2.904;2023-03-01T22:14:03;15.80;39.70
21214;DHT22;10764;50.850;2.904;2023-03-01T22:16:31;15.90;39.90
21214;DHT22;10764;50.850;2.904;2023-03-01T22:18:58;16.50;40.10
21214;DHT22;10764;50.850;2.904;2023-03-01T22:21:26;15.90;39.90
21214;DHT22;10764;50.850;2.904;2023-03-01T22:23:54;15.90;39.90
21214;DHT22;10764;50.850;2.904;2023-03-01T22:26:24;19.50;41.90
21214;DHT22;10764;50.850;2.904;2023-03-01T22:28:52;17.80;40.80
21214;DHT22;10764;50.850;2.904;2023-03-01T22:31:19;18.70;41.30
21214;DHT22;10764;50.850;2.904;2023-03-01T22:33:47;15.90;40.10
21214;DHT22;10764;50.850;2.904;2023-03-01T22:36:13;19.90;42.10
21214;DHT22;10764;50.850;2.904;2023-03-01T22:38:40;15.90;40.00
21214;DHT22;10764;50.850;2.904;2023-03-01T22:41:08;19.20;41.70
21214;DHT22;10764;50.850;2.904;2023-03-01T22:43:35;18.40;41.40
21214;DHT22;10764;50.850;2.904;2023-03-01T22:46:17;15.90;40.10
21214;DHT22;10764;50.850;2.904;2023-03-01T22:48:45;15.90;40.00
21214;DHT22;10764;50.850;2.904;2023-03-01T22:51:24;18.90;41.50
21214;DHT22;10764;50.850;2.904;2023-03-01T22:53:51;15.90;40.10
21214;DHT22;10764;50.850;2.904;2023-03-01T22:56:21;17.20;40.80
21214;DHT22;10764;50.850;2.904;2023-03-01T22:58:48;17.40;40.80
21214;DHT22;10764;50.850;2.904;2023-03-01T23:01:21;19.50;42.00
21214;DHT22;10764;50.850;2.904;2023-03-01T23:03:49;15.90;40.10
21214;DHT22;10764;50.850;2.904;2023-03-01T23:06:18;18.10;41.20
21214;DHT22;10764;50.850;2.904;2023-03-01T23:08:51;16.10;40.30
21214;DHT22;10764;50.850;2.904;2023-03-01T23:11:19;15.90;40.20
21214;DHT22;10764;50.850;2.904;2023-03-01T23:13:47;18.00;41.30
21214;DHT22;10764;50.850;2.904;2023-03-01T23:16:14;19.10;41.80
21214;DHT22;10764;50.850;2.904;2023-03-01T23:18:41;18.90;41.70
21214;DHT22;10764;50.850;2.904;2023-03-01T23:21:16;15.90;40.30
21214;DHT22;10764;50.850;2.904;2023-03-01T23:23:45;15.90;40.30
21214;DHT22;10764;50.850;2.904;2023-03-01T23:26:14;15.80;40.30
21214;DHT22;10764;50.850;2.904;2023-03-01T23:28:41;15.50;40.10
21214;DHT22;10764;50.850;2.904;2023-03-01T23:31:11;18.00;41.30
21214;DHT22;10764;50.850;2.904;2023-03-01T23:33:40;19.10;41.80
21214;DHT22;10764;50.850;2.904;2023-03-01T23:36:18;15.90;40.30
21214;DHT22;10764;50.850;2.904;2023-03-01T23:38:47;15.90;40.30
21214;DHT22;10764;50.850;2.904;2023-03-01T23:41:17;15.80;40.30
21214;DHT22;10764;50.850;2.904;2023-03-01T23:43:45;19.60;42.10
21214;DHT22;10764;50.850;2.904;2023-03-01T23:46:14;17.40;41.00
21214;DHT22;10764;50.850;2.904;2023-03-01T23:48:42;15.90;40.30
21214;DHT22;10764;50.850;2.904;2023-03-01T23:51:10;19.00;41.90
21214;DHT22;10764;50.850;2.904;2023-03-01T23:53:41;17.60;41.20
21214;DHT22;10764;50.850;2.904;2023-03-01T23:56:12;15.90;40.40
21214;DHT22;10764;50.850;2.904;2023-03-01T23:58:39;16.10;40.50
